createdAt,value
2022-08-22T00:02:04.385Z,16.71
2022-08-22T00:07:12.218Z,16.65
2022-08-22T00:12:20.088Z,16.58
2022-08-22T00:17:26.626Z,16.5
2022-08-22T00:22:34.571Z,16.41
2022-08-22T00:27:42.621Z,16.33
2022-08-22T00:32:50.316Z,16.22
2022-08-22T00:37:57.980Z,16.15
2022-08-22T00:44:36.700Z,16.12
2022-08-22T00:49:43.373Z,16.12
2022-08-22T00:54:51.102Z,16.08
2022-08-22T00:59:58.786Z,16.08
2022-08-22T01:05:06.842Z,16.1
2022-08-22T01:10:15.260Z,16.03
2022-08-22T01:15:23.178Z,15.98
2022-08-22T01:20:31.283Z,15.92
2022-08-22T01:25:37.845Z,15.89
2022-08-22T01:30:44.850Z,15.83
2022-08-22T01:35:53.045Z,15.75
2022-08-22T01:41:01.823Z,15.67
2022-08-22T01:46:10.853Z,15.62
2022-08-22T01:51:19.129Z,15.58
2022-08-22T01:56:27.167Z,15.55
2022-08-22T02:01:34.462Z,15.58
2022-08-22T02:06:42.361Z,15.56
2022-08-22T02:11:49.990Z,15.53
2022-08-22T02:16:58.329Z,15.52
2022-08-22T02:22:05.680Z,15.48
2022-08-22T02:27:13.521Z,15.52
2022-08-22T02:32:20.695Z,15.48
2022-08-22T02:37:29.047Z,15.46
2022-08-22T02:42:37.524Z,15.42
2022-08-22T02:47:45.301Z,15.38
2022-08-22T02:52:53.524Z,15.38
2022-08-22T02:58:01.776Z,15.36
2022-08-22T03:03:09.591Z,15.36
2022-08-22T03:08:17.520Z,15.4
2022-08-22T03:13:33.578Z,15.42
2022-08-22T03:18:42.004Z,15.4
2022-08-22T03:23:48.698Z,15.4
2022-08-22T03:30:28.077Z,15.42
2022-08-22T03:35:34.007Z,15.38
2022-08-22T03:40:41.634Z,15.36
2022-08-22T03:45:49.510Z,15.26
2022-08-22T03:50:57.532Z,15.26
2022-08-22T03:56:12.395Z,15.2
2022-08-22T04:01:19.829Z,15.24
2022-08-22T04:06:26.947Z,15.22
2022-08-22T04:11:34.618Z,15.2
2022-08-22T04:16:42.519Z,15.22
2022-08-22T04:21:49.660Z,15.19
2022-08-22T04:26:57.652Z,15.15
2022-08-22T04:32:06.123Z,15.16
2022-08-22T04:37:13.216Z,15.22
2022-08-22T04:42:20.725Z,15.24
2022-08-22T04:47:28.219Z,15.19
2022-08-22T04:52:35.995Z,15.12
2022-08-22T04:57:43.989Z,15.13
2022-08-22T05:02:52.317Z,15.14
2022-08-22T05:08:00.394Z,15.15
2022-08-22T05:13:08.888Z,15.21
2022-08-22T05:18:17.140Z,15.28
2022-08-22T05:23:24.424Z,15.28
2022-08-22T05:28:32.622Z,15.22
2022-08-22T05:33:41.211Z,15.22
2022-08-22T05:38:49.403Z,15.25
2022-08-22T05:43:57.527Z,15.3
2022-08-22T05:49:06.003Z,15.33
2022-08-22T05:54:13.338Z,15.32
2022-08-22T05:59:21.178Z,15.29
2022-08-22T06:04:29.600Z,15.26
2022-08-22T06:09:37.693Z,15.28
2022-08-22T06:14:45.413Z,15.34
2022-08-22T06:19:53.810Z,15.36
2022-08-22T06:25:03.782Z,15.43
2022-08-22T06:30:10.924Z,15.49
2022-08-22T06:35:18.485Z,15.53
2022-08-22T06:40:26.406Z,15.6
2022-08-22T06:45:34.412Z,15.82
2022-08-22T06:50:43.381Z,15.98
2022-08-22T06:55:52.498Z,16.11
2022-08-22T07:01:00.087Z,16.14
2022-08-22T07:06:08.725Z,16.26
2022-08-22T07:11:15.431Z,16.4
2022-08-22T07:16:23.446Z,16.28
2022-08-22T07:21:32.606Z,16.24
2022-08-22T07:26:39.660Z,16.04
2022-08-22T07:31:47.422Z,16.07
2022-08-22T07:36:55.768Z,16.02
2022-08-22T07:42:03.512Z,16.14
2022-08-22T07:47:11.616Z,16.09
2022-08-22T07:52:18.786Z,16.04
2022-08-22T07:57:28.349Z,15.98
2022-08-22T08:02:35.740Z,16.04
2022-08-22T08:07:43.962Z,15.97
2022-08-22T08:12:51.492Z,15.92
2022-08-22T08:17:57.337Z,15.92
2022-08-22T08:23:05.650Z,15.86
2022-08-22T08:28:14.169Z,15.83
2022-08-22T08:33:21.759Z,15.97
2022-08-22T08:38:28.944Z,16.07
2022-08-22T08:43:36.409Z,16.06
2022-08-22T08:48:44.339Z,16.12
2022-08-22T08:53:52.627Z,16.32
2022-08-22T08:59:00.055Z,16.57
2022-08-22T09:04:08.410Z,16.71
2022-08-22T09:09:16.375Z,16.89
2022-08-22T09:14:23.908Z,17.02
2022-08-22T09:19:32.087Z,17.17
2022-08-22T09:24:39.919Z,17.26
2022-08-22T09:29:47.670Z,17.35
2022-08-22T09:34:54.294Z,17.46
2022-08-22T09:40:02.071Z,17.74
2022-08-22T09:45:10.489Z,17.89
2022-08-22T09:50:18.009Z,17.97
2022-08-22T09:55:25.685Z,18.1
2022-08-22T10:00:34.136Z,18.48
2022-08-22T10:05:41.488Z,18.7
2022-08-22T10:10:49.178Z,18.78
2022-08-22T10:15:56.630Z,18.65
2022-08-22T10:21:04.539Z,18.83
2022-08-22T10:26:52.428Z,18.94
2022-08-22T10:32:00.215Z,18.9
2022-08-22T10:37:06.786Z,18.7
2022-08-22T10:42:14.621Z,18.26
2022-08-22T10:47:21.829Z,17.96
2022-08-22T10:52:29.863Z,17.75
2022-08-22T10:57:36.871Z,17.56
2022-08-22T11:02:44.083Z,17.58
2022-08-22T11:07:51.715Z,17.66
2022-08-22T11:12:58.966Z,17.84
2022-08-22T11:18:15.514Z,18.04
2022-08-22T11:23:23.101Z,18.11
2022-08-22T11:28:30.651Z,18.3
2022-08-22T11:33:39.116Z,18.72
2022-08-22T11:38:47.761Z,18.81
2022-08-22T11:43:56.779Z,18.78
2022-08-22T11:49:04.575Z,18.66
2022-08-22T11:54:12.485Z,18.73
2022-08-22T11:59:20.394Z,18.76
2022-08-22T12:04:28.248Z,18.85
2022-08-22T12:09:34.953Z,18.92
2022-08-22T12:14:43.190Z,18.93
2022-08-22T12:19:51.476Z,18.91
2022-08-22T12:25:00.078Z,19.03
2022-08-22T12:30:08.730Z,19.22
2022-08-22T12:35:15.449Z,19.26
2022-08-22T12:40:23.945Z,19.47
2022-08-22T12:45:31.059Z,19.24
2022-08-22T12:50:39.140Z,19.06
2022-08-22T12:55:46.148Z,18.8
2022-08-22T13:00:54.623Z,18.68
2022-08-22T13:06:03.617Z,18.65
2022-08-22T13:11:11.738Z,18.54
2022-08-22T13:16:19.834Z,18.5
2022-08-22T13:21:28.405Z,18.5
2022-08-22T13:26:37.529Z,18.46
2022-08-22T13:31:44.572Z,18.44
2022-08-22T13:36:52.721Z,18.41
2022-08-22T13:42:00.528Z,18.4
2022-08-22T13:47:08.173Z,18.46
2022-08-22T13:52:14.957Z,18.65
2022-08-22T13:57:23.290Z,18.8
2022-08-22T14:02:30.626Z,18.85
2022-08-22T14:07:37.799Z,18.86
2022-08-22T14:12:45.658Z,18.83
2022-08-22T14:17:54.086Z,18.82
2022-08-22T14:23:00.511Z,18.72
2022-08-22T14:28:09.678Z,18.58
2022-08-22T14:33:17.530Z,18.46
2022-08-22T14:38:24.981Z,18.33
2022-08-22T14:43:33.207Z,18.28
2022-08-22T14:48:41.005Z,18.11
2022-08-22T14:53:47.677Z,17.92
2022-08-22T14:58:54.943Z,17.75
2022-08-22T15:04:03.667Z,17.62
2022-08-22T15:09:10.090Z,17.78
2022-08-22T15:14:18.966Z,17.88
2022-08-22T15:19:26.670Z,17.94
2022-08-22T15:24:34.257Z,17.96
2022-08-22T15:29:42.489Z,18.1
2022-08-22T15:34:50.239Z,18.19
2022-08-22T15:39:57.681Z,18.22
2022-08-22T15:45:04.298Z,18.18
2022-08-22T15:50:11.420Z,18.11
2022-08-22T15:55:19.069Z,17.96
2022-08-22T16:00:27.598Z,17.68
2022-08-22T16:05:34.305Z,17.5
2022-08-22T16:10:41.495Z,17.34
2022-08-22T16:15:48.098Z,17.17
2022-08-22T16:20:56.705Z,17.03
2022-08-22T16:26:05.532Z,16.98
2022-08-22T16:31:19.439Z,16.94
2022-08-22T16:36:27.070Z,16.85
2022-08-22T16:41:33.853Z,16.68
2022-08-22T16:46:43.109Z,16.56
2022-08-22T16:51:49.921Z,16.5
2022-08-22T16:56:57.187Z,16.44
2022-08-22T17:02:04.474Z,16.23
2022-08-22T17:07:13.374Z,16.06
2022-08-22T17:12:20.736Z,15.89
2022-08-22T17:17:27.289Z,15.76
2022-08-22T17:22:35.317Z,15.72
2022-08-22T17:27:43.025Z,15.72
2022-08-22T17:32:50.140Z,15.7
2022-08-22T17:37:57.784Z,15.68
2022-08-22T17:43:06.331Z,15.61
2022-08-22T17:48:13.831Z,15.58
2022-08-22T17:53:21.325Z,15.58
2022-08-22T17:58:29.453Z,15.58
2022-08-22T18:03:37.292Z,15.58
2022-08-22T18:08:50.162Z,15.58
2022-08-22T18:13:56.895Z,15.56
2022-08-22T18:19:03.846Z,15.56
2022-08-22T18:24:11.130Z,15.55
2022-08-22T18:29:18.327Z,15.52
2022-08-22T18:34:25.524Z,15.58
2022-08-22T18:39:32.766Z,15.61
2022-08-22T18:44:41.044Z,15.66
2022-08-22T18:49:48.754Z,15.68
2022-08-22T18:54:56.883Z,15.7
2022-08-22T19:00:03.421Z,15.72
2022-08-22T19:05:12.061Z,15.74
2022-08-22T19:10:20.440Z,15.76
2022-08-22T19:15:26.972Z,15.78
2022-08-22T19:20:35.569Z,15.76
2022-08-22T19:25:43.264Z,15.74
2022-08-22T19:30:51.112Z,15.74
2022-08-22T19:35:58.334Z,15.74
2022-08-22T19:41:05.677Z,15.74
2022-08-22T19:46:13.568Z,15.74
2022-08-22T19:51:21.748Z,15.74
2022-08-22T19:56:29.236Z,15.74
2022-08-22T20:01:37.324Z,15.72
2022-08-22T20:06:45.508Z,15.72
2022-08-22T20:11:52.758Z,15.72
2022-08-22T20:17:01.176Z,15.74
2022-08-22T20:22:09.165Z,15.75
2022-08-22T20:27:17.183Z,15.76
2022-08-22T20:32:24.961Z,15.8
2022-08-22T20:37:32.889Z,15.82
2022-08-22T20:42:40.410Z,15.82
2022-08-22T20:47:48.865Z,15.86
2022-08-22T20:52:56.535Z,15.85
2022-08-22T20:58:03.784Z,15.64
2022-08-22T21:03:11.433Z,15.39
2022-08-22T21:08:19.146Z,15.26
2022-08-22T21:13:27.423Z,15.2
2022-08-22T21:18:36.085Z,15.15
2022-08-22T21:23:43.648Z,15.11
2022-08-22T21:28:51.419Z,15.04
2022-08-22T21:33:58.885Z,14.98
2022-08-22T21:39:07.262Z,14.99
2022-08-22T21:44:15.450Z,14.97
2022-08-22T21:49:22.122Z,14.98
2022-08-22T21:54:30.015Z,15.01
2022-08-22T21:59:38.295Z,15.02
2022-08-22T22:04:46.803Z,15.03
2022-08-22T22:09:54.774Z,15.05
2022-08-22T22:15:02.790Z,15.1
2022-08-22T22:20:09.812Z,15.15
2022-08-22T22:25:18.054Z,15.17
2022-08-22T22:30:26.333Z,15.2
2022-08-22T22:35:34.614Z,15.24
2022-08-22T22:40:43.865Z,15.25
2022-08-22T22:45:51.575Z,15.26
2022-08-22T22:50:58.805Z,15.25
2022-08-22T22:56:06.246Z,15.24
2022-08-22T23:01:14.067Z,15.26
2022-08-22T23:06:30.282Z,15.26
2022-08-22T23:11:37.629Z,15.28
2022-08-22T23:16:45.714Z,15.26
2022-08-22T23:21:53.542Z,15.28
2022-08-22T23:27:01.486Z,15.3
2022-08-22T23:32:08.597Z,15.3
2022-08-22T23:37:15.102Z,15.32
2022-08-22T23:42:23.024Z,15.32
2022-08-22T23:47:30.863Z,15.32
2022-08-22T23:52:38.011Z,15.29
2022-08-22T23:57:45.873Z,15.26
